Time;durP1;ratioP1;P1;durP2;ratioP2;P2;SDS_P1;SDS_P2;PMS_P1;PMS_P2;Temp;Humidity;BMP_temperature;BMP_pressure;BME280_temperature;BME280_humidity;BME280_pressure;Samples;Min_cycle;Max_cycle;Signal;HPM_P1;HPM_P2
2022/10/04 00:02:28;;;;;;;10.60;6.32;;;;;;;13.92;71.13;102288.75;5072262;28;20048;-59
2022/10/04 00:05:02;;;;;;;13.90;6.65;;;;;;;13.93;71.40;102290.44;5059009;28;20082;-59
2022/10/04 00:07:32;;;;;;;11.10;6.78;;;;;;;13.91;71.10;102292.63;5074662;28;20478;-59
2022/10/04 00:10:19;;;;;;;15.43;7.50;;;;;;;13.96;71.10;102291.91;5066135;28;20120;-59
2022/10/04 00:12:57;;;;;;;11.10;7.22;;;;;;;13.89;71.54;102288.38;5065428;28;20036;-59
2022/10/04 00:15:29;;;;;;;14.93;7.57;;;;;;;13.88;71.39;102283.91;5068291;28;20040;-59
2022/10/04 00:18:22;;;;;;;12.70;7.85;;;;;;;13.95;71.34;102282.69;5053736;28;20029;-59
2022/10/04 00:20:52;;;;;;;13.18;7.50;;;;;;;13.87;71.64;102274.69;5066494;28;20024;-59
2022/10/04 00:23:23;;;;;;;8.85;7.13;;;;;;;13.89;71.75;102272.47;5066018;28;20028;-59
2022/10/04 00:25:54;;;;;;;12.82;7.63;;;;;;;13.86;71.09;102270.16;5071586;28;20036;-59
2022/10/04 00:28:19;;;;;;;11.20;7.30;;;;;;;13.84;71.29;102269.56;5068756;28;20036;-59
2022/10/04 00:31:06;;;;;;;11.45;7.10;;;;;;;13.87;71.04;102260.72;5070608;28;20033;-59
2022/10/04 00:33:38;;;;;;;12.40;6.97;;;;;;;13.78;71.13;102262.13;5064073;28;20087;-59
2022/10/04 00:36:25;;;;;;;11.60;7.20;;;;;;;13.83;70.61;102256.69;5077154;28;20070;-59
2022/10/04 00:39:05;;;;;;;12.30;7.82;;;;;;;13.79;70.67;102258.25;5081184;28;20041;-59
2022/10/04 00:42:01;;;;;;;11.68;7.30;;;;;;;13.79;70.40;102249.03;5063954;28;20044;-59
2022/10/04 00:44:37;;;;;;;11.98;7.18;;;;;;;13.70;70.70;102245.75;5071236;28;20033;-58
2022/10/04 00:47:19;;;;;;;12.68;7.80;;;;;;;13.67;70.95;102262.97;5059892;28;20025;-59
2022/10/04 00:49:47;;;;;;;12.20;7.00;;;;;;;13.66;70.49;102266.84;5053827;28;20029;-59
2022/10/04 00:52:22;;;;;;;11.60;6.97;;;;;;;13.66;70.73;102264.91;5064498;28;20025;-58
2022/10/04 00:54:57;;;;;;;13.52;7.68;;;;;;;13.65;70.64;102262.38;5056401;28;20025;-58
2022/10/04 00:57:28;;;;;;;13.43;8.18;;;;;;;13.64;70.79;102261.53;5053305;28;20021;-58
2022/10/04 01:00:04;;;;;;;11.73;7.68;;;;;;;13.62;71.09;102257.25;5066637;28;20027;-58
2022/10/04 01:02:49;;;;;;;15.88;7.93;;;;;;;13.60;70.73;102245.50;5063695;28;20039;-59
2022/10/04 01:05:18;;;;;;;11.85;9.10;;;;;;;13.56;70.72;102244.25;5056178;28;20024;-58
2022/10/04 01:07:51;;;;;;;14.93;8.75;;;;;;;13.53;71.04;102239.19;5056415;28;20407;-58
2022/10/04 01:10:44;;;;;;;12.05;8.93;;;;;;;13.58;70.70;102229.00;5053003;28;20052;-59
2022/10/04 01:13:16;;;;;;;14.50;9.07;;;;;;;13.51;70.96;102219.88;5053372;28;20428;-58
2022/10/04 01:15:41;;;;;;;16.00;8.60;;;;;;;13.49;70.96;102224.84;5051557;28;20083;-58
2022/10/04 01:18:18;;;;;;;14.60;8.88;;;;;;;13.48;70.94;102221.22;5080963;28;20048;-59
2022/10/04 01:21:19;;;;;;;11.50;8.13;;;;;;;13.50;70.79;102216.25;5069805;28;20499;-58
2022/10/04 01:23:57;;;;;;;11.05;8.27;;;;;;;13.46;70.77;102219.75;5053268;28;20036;-58
2022/10/04 01:26:25;;;;;;;11.93;8.27;;;;;;;13.44;70.45;102219.13;5061977;28;20036;-59
2022/10/04 01:28:51;;;;;;;13.80;8.50;;;;;;;13.37;70.56;102224.81;5061963;28;20044;-59
2022/10/04 01:31:16;;;;;;;13.15;8.73;;;;;;;13.35;70.83;102209.41;5069020;28;20020;-59
2022/10/04 01:33:42;;;;;;;13.48;8.55;;;;;;;13.40;70.61;102201.16;5076125;28;20040;-58
2022/10/04 01:36:07;;;;;;;14.23;9.18;;;;;;;13.34;70.08;102211.34;5068204;28;20033;-58
2022/10/04 01:38:33;;;;;;;10.73;8.13;;;;;;;13.33;70.45;102220.81;5063710;28;20032;-59
2022/10/04 01:41:01;;;;;;;12.25;8.68;;;;;;;13.31;70.26;102213.78;5061732;28;20549;-58
2022/10/04 01:43:32;;;;;;;15.20;8.55;;;;;;;13.29;70.47;102210.38;5056988;28;20040;-58
2022/10/04 01:46:04;;;;;;;14.80;8.80;;;;;;;13.25;70.33;102204.44;5061996;28;20032;-59
2022/10/04 01:48:34;;;;;;;13.90;8.43;;;;;;;13.27;70.22;102205.03;5061834;28;20446;-58
2022/10/04 01:51:19;;;;;;;12.43;8.15;;;;;;;13.29;70.48;102202.88;5052048;28;20025;-59
2022/10/04 01:54:00;;;;;;;13.68;8.50;;;;;;;13.24;70.36;102203.59;5061456;28;20028;-59
2022/10/04 01:56:31;;;;;;;15.13;8.90;;;;;;;13.20;70.28;102195.88;5054614;28;20039;-59
2022/10/04 01:59:00;;;;;;;11.52;8.32;;;;;;;13.20;70.64;102207.03;5055440;28;20053;-58
2022/10/04 02:01:39;;;;;;;13.20;8.68;;;;;;;13.22;70.80;102194.56;5063689;28;20028;-58
2022/10/04 02:04:16;;;;;;;11.57;8.23;;;;;;;13.17;70.91;102194.44;5086304;28;20434;-58
2022/10/04 02:06:43;;;;;;;14.82;8.70;;;;;;;13.21;70.63;102192.03;5059461;28;20074;-61
2022/10/04 02:09:17;;;;;;;15.52;8.95;;;;;;;13.19;70.50;102194.19;5052178;28;20066;-58
2022/10/04 02:11:43;;;;;;;13.70;8.75;;;;;;;13.12;70.32;102185.06;5055434;28;20484;-58
2022/10/04 02:14:16;;;;;;;14.18;8.25;;;;;;;13.11;70.12;102180.59;5064417;28;20032;-58
2022/10/04 02:16:45;;;;;;;;;;;;;;;13.35;69.74;102175.94;5056443;28;20028;-58
2022/10/04 02:19:13;;;;;;;11.38;8.75;;;;;;;13.09;70.06;102166.06;5062857;28;19938;-59
2022/10/04 02:21:39;;;;;;;15.15;8.70;;;;;;;13.05;70.05;102162.00;5074035;28;20129;-58
2022/10/04 02:24:07;;;;;;;11.88;8.70;;;;;;;13.01;70.44;102164.44;5058567;28;20120;-58
2022/10/04 02:26:33;;;;;;;14.32;8.90;;;;;;;13.02;70.23;102160.56;5057570;28;20036;-58
2022/10/04 02:28:58;;;;;;;17.05;9.48;;;;;;;13.02;70.46;102158.63;5069916;28;20027;-58
2022/10/04 02:34:09;;;;;;;18.45;9.43;;;;;;;12.98;70.62;102143.47;5058400;28;20571;-58
2022/10/04 02:36:35;;;;;;;16.73;9.23;;;;;;;12.98;70.85;102142.63;5071239;28;20032;-58
2022/10/04 02:39:12;;;;;;;16.73;8.95;;;;;;;12.99;71.04;102136.81;5060251;28;20055;-59
2022/10/04 02:41:47;;;;;;;12.15;9.30;;;;;;;12.95;70.76;102121.66;5064535;28;20032;-59
2022/10/04 02:44:28;;;;;;;13.70;9.35;;;;;;;12.94;71.04;102124.69;5069689;28;20032;-59
2022/10/04 02:47:07;;;;;;;15.60;8.95;;;;;;;13.00;70.83;102127.34;5064511;28;20090;-60
2022/10/04 02:49:53;;;;;;;11.95;8.98;;;;;;;12.99;70.70;102120.06;5075323;28;20039;-59
2022/10/04 02:52:33;;;;;;;16.85;8.90;;;;;;;12.96;71.07;102106.63;5052394;28;20044;-59
2022/10/04 02:55:12;;;;;;;16.13;9.38;;;;;;;12.92;71.04;102098.97;5052850;28;20025;-59
2022/10/04 02:57:41;;;;;;;13.45;9.68;;;;;;;12.85;71.25;102101.88;5089268;28;20039;-59
2022/10/04 03:00:18;;;;;;;14.90;9.50;;;;;;;12.90;70.83;102088.06;5075654;28;20028;-58
2022/10/04 03:03:08;;;;;;;15.10;10.27;;;;;;;12.94;70.69;102085.66;5051967;28;20116;-58
2022/10/04 03:05:34;;;;;;;13.88;9.77;;;;;;;12.82;71.07;102085.63;5060131;28;20442;-58
2022/10/04 03:08:00;;;;;;;16.40;9.57;;;;;;;12.85;71.02;102076.81;5056708;28;20040;-59
2022/10/04 03:10:26;;;;;;;15.00;9.88;;;;;;;12.79;71.05;102077.75;5064413;28;20380;-58
2022/10/04 03:12:52;;;;;;;15.75;10.77;;;;;;;12.75;71.04;102082.09;5091392;28;20024;-58
2022/10/04 03:15:18;;;;;;;16.10;10.80;;;;;;;12.77;70.73;102079.91;5069101;28;20044;-58
2022/10/04 03:17:44;;;;;;;17.52;11.02;;;;;;;12.75;70.63;102082.94;5065218;28;20111;-58
2022/10/04 03:20:15;;;;;;;18.85;11.38;;;;;;;12.74;71.12;102089.59;5068293;28;20119;-58
2022/10/04 03:22:43;;;;;;;15.00;10.35;;;;;;;12.72;70.76;102080.63;5054670;28;20096;-58
2022/10/04 03:25:15;;;;;;;17.52;11.13;;;;;;;12.78;70.48;102076.06;5056263;28;20041;-58
2022/10/04 03:27:41;;;;;;;14.38;10.48;;;;;;;12.76;70.50;102073.50;5057351;28;20028;-58
2022/10/04 03:30:12;;;;;;;19.85;11.13;;;;;;;12.73;70.79;102075.91;5067907;28;20036;-58
2022/10/04 03:32:38;;;;;;;13.55;9.70;;;;;;;12.71;70.48;102078.09;5068905;28;20044;-59
2022/10/04 03:35:07;;;;;;;17.90;10.80;;;;;;;12.71;70.76;102067.78;5066418;28;20025;-59
2022/10/04 03:37:37;;;;;;;13.88;10.45;;;;;;;12.69;70.73;102072.75;5068090;28;20051;-59
2022/10/04 03:40:07;;;;;;;14.88;10.52;;;;;;;12.59;70.35;102064.13;5067689;28;20040;-59
2022/10/04 03:42:35;;;;;;;16.58;10.55;;;;;;;12.66;70.55;102059.31;5077642;28;20090;-59
2022/10/04 03:45:04;;;;;;;19.08;10.60;;;;;;;12.64;70.76;102053.09;5058962;28;20056;-59
2022/10/04 03:47:34;;;;;;;16.80;10.15;;;;;;;12.57;70.28;102057.06;5064493;28;20028;-59
2022/10/04 03:50:11;;;;;;;18.23;10.80;;;;;;;12.58;70.48;102054.06;5049546;28;20036;-59
2022/10/04 03:52:47;;;;;;;15.02;9.93;;;;;;;12.59;70.20;102046.56;5055943;28;20090;-59
2022/10/04 03:55:15;;;;;;;15.52;9.75;;;;;;;12.63;70.57;102054.19;5064487;28;20029;-59
2022/10/04 03:57:40;;;;;;;15.68;10.13;;;;;;;12.57;70.59;102037.59;5066389;28;20024;-59
2022/10/04 04:00:06;;;;;;;15.85;10.25;;;;;;;12.50;70.29;102040.50;5063350;28;20047;-59
2022/10/04 04:02:39;;;;;;;15.30;10.02;;;;;;;12.53;70.72;102048.34;5052052;28;20379;-59
2022/10/04 04:05:18;;;;;;;17.15;9.73;;;;;;;12.48;70.32;102042.66;5049446;28;20036;-59
2022/10/04 04:08:00;;;;;;;16.08;10.52;;;;;;;12.48;70.71;102037.94;5068207;28;20032;-59
2022/10/04 04:10:29;;;;;;;17.15;11.23;;;;;;;12.47;70.19;102041.81;5064515;28;20106;-59
2022/10/04 04:13:00;;;;;;;15.93;10.50;;;;;;;12.44;70.42;102036.69;5074414;28;20428;-59
2022/10/04 04:15:30;;;;;;;16.95;9.85;;;;;;;12.47;70.33;102041.81;5068107;28;20036;-59
2022/10/04 04:18:04;;;;;;;16.98;10.52;;;;;;;12.43;70.56;102037.78;5063831;28;20032;-59
2022/10/04 04:20:35;;;;;;;14.27;10.15;;;;;;;12.43;70.37;102037.78;5074286;28;20032;-59
2022/10/04 04:23:13;;;;;;;14.35;10.27;;;;;;;12.39;70.73;102039.34;5054958;28;20033;-59
2022/10/04 04:25:41;;;;;;;12.30;9.40;;;;;;;12.37;70.52;102041.50;5055413;28;20040;-59
2022/10/04 04:28:24;;;;;;;12.15;9.23;;;;;;;12.41;70.65;102045.53;5055478;28;20029;-59
2022/10/04 04:30:55;;;;;;;16.50;9.63;;;;;;;12.36;70.61;102048.16;5068586;28;20107;-59
2022/10/04 04:34:00;;;;;;;17.42;10.02;;;;;;;12.42;70.47;102044.47;5060713;28;20040;-59
2022/10/04 04:36:40;;;;;;;15.00;9.38;;;;;;;12.35;70.68;102049.25;5070642;28;20039;-59
2022/10/04 04:42:13;;;;;;;15.05;9.45;;;;;;;12.28;70.03;102042.94;5070471;28;20082;-59
2022/10/04 04:44:55;;;;;;;13.20;9.40;;;;;;;12.31;70.59;102038.84;5064093;28;20419;-59
2022/10/04 04:47:28;;;;;;;16.65;10.23;;;;;;;12.33;70.50;102040.28;5065991;28;20543;-59
2022/10/04 04:49:57;;;;;;;14.82;9.30;;;;;;;12.26;70.54;102034.84;5063591;28;20533;-59
2022/10/04 04:52:27;;;;;;;17.85;10.48;;;;;;;12.27;70.32;102035.69;5060936;28;20027;-59
2022/10/04 04:54:54;;;;;;;13.43;9.27;;;;;;;12.29;70.45;102022.34;5072013;28;20447;-59
2022/10/04 04:57:20;;;;;;;14.02;9.02;;;;;;;12.24;70.29;102013.88;5053827;28;20107;-60
2022/10/04 04:59:51;;;;;;;17.00;9.82;;;;;;;12.21;70.15;102012.41;5059681;28;20072;-59
2022/10/04 05:02:26;;;;;;;16.23;10.05;;;;;;;12.26;70.73;102018.13;5056740;28;20042;-59
2022/10/04 05:05:13;;;;;;;19.15;10.48;;;;;;;12.27;70.25;102019.81;5073257;28;20028;-59
2022/10/04 05:07:42;;;;;;;13.57;9.75;;;;;;;12.20;70.68;102024.63;5079645;28;20032;-59
2022/10/04 05:10:21;;;;;;;14.68;10.02;;;;;;;12.24;70.54;102025.84;5093458;28;20064;-59
2022/10/04 05:12:47;;;;;;;17.58;9.98;;;;;;;12.15;70.69;102024.50;5093116;28;20472;-59
2022/10/04 05:15:13;;;;;;;16.33;9.98;;;;;;;12.11;70.21;102026.03;5087101;28;20062;-59
2022/10/04 05:17:38;;;;;;;16.80;9.90;;;;;;;12.10;70.74;102026.25;5070686;28;20444;-59
2022/10/04 05:20:04;;;;;;;15.98;10.00;;;;;;;12.16;70.35;102028.97;5072562;28;20487;-59
2022/10/04 05:22:31;;;;;;;15.02;9.30;;;;;;;12.14;70.67;102030.28;5080018;28;20032;-58
2022/10/04 05:25:18;;;;;;;13.65;8.80;;;;;;;12.13;70.63;102031.38;5066174;28;20024;-58
2022/10/04 05:27:44;;;;;;;10.40;8.35;;;;;;;12.10;70.62;102029.88;5062377;28;20113;-58
2022/10/04 05:30:36;;;;;;;13.75;8.70;;;;;;;12.14;70.38;102024.72;5060879;28;20105;-58
2022/10/04 05:33:09;;;;;;;17.27;8.93;;;;;;;12.11;70.36;102025.19;5057789;28;20048;-60
2022/10/04 05:35:50;;;;;;;13.35;8.18;;;;;;;12.10;70.69;102024.31;5068955;28;20032;-59
2022/10/04 05:38:22;;;;;;;15.25;8.52;;;;;;;12.08;70.49;102025.66;5064978;28;20464;-59
2022/10/04 05:41:01;;;;;;;10.77;7.80;;;;;;;12.08;70.36;102026.50;5053015;28;20033;-59
2022/10/04 05:43:47;;;;;;;13.27;8.07;;;;;;;12.04;70.33;102023.34;5051546;28;20024;-59
2022/10/04 05:46:18;;;;;;;11.05;7.57;;;;;;;12.01;70.46;102029.38;5052434;28;20082;-59
2022/10/04 05:48:46;;;;;;;9.68;7.07;;;;;;;12.08;69.99;102026.50;5051904;28;20654;-59
2022/10/04 05:51:19;;;;;;;12.85;7.55;;;;;;;12.03;70.27;102023.59;5066959;28;20074;-58
2022/10/04 05:53:46;;;;;;;12.88;7.60;;;;;;;12.07;70.03;102037.88;5066083;28;20025;-59
2022/10/04 05:56:26;;;;;;;11.20;7.25;;;;;;;12.07;70.45;102041.50;5051557;28;20025;-58
2022/10/04 05:59:30;;;;;;;10.25;7.50;;;;;;;12.08;70.18;102043.22;5064005;28;20032;-58
2022/10/04 06:02:10;;;;;;;10.98;7.03;;;;;;;12.04;70.04;102051.16;5066709;28;20040;-58
2022/10/04 06:05:07;;;;;;;10.90;6.82;;;;;;;11.97;70.44;102044.84;5066332;28;20616;-59
2022/10/04 06:07:44;;;;;;;11.63;6.53;;;;;;;12.01;70.20;102037.72;5065743;28;20037;-58
2022/10/04 06:10:37;;;;;;;10.60;6.85;;;;;;;12.03;70.32;102035.56;5072703;28;20040;-58
2022/10/04 06:13:29;;;;;;;12.82;6.53;;;;;;;12.03;70.42;102043.91;5051742;28;20033;-60
2022/10/04 06:16:33;;;;;;;11.73;6.65;;;;;;;12.10;69.88;102045.75;5057694;28;20061;-58
2022/10/04 06:19:27;;;;;;;10.85;6.65;;;;;;;12.05;69.90;102043.66;5054809;28;20127;-60
2022/10/04 06:22:15;;;;;;;9.52;6.40;;;;;;;12.04;70.27;102051.16;5062425;28;20136;-60
2022/10/04 06:24:44;;;;;;;10.40;6.40;;;;;;;12.03;70.34;102041.13;5052334;28;20028;-59
2022/10/04 06:27:20;;;;;;;10.25;5.63;;;;;;;12.03;69.84;102057.81;5064945;28;20031;-59
2022/10/04 06:29:54;;;;;;;8.80;5.60;;;;;;;12.02;70.32;102053.34;5070444;28;20060;-59
2022/10/04 06:32:35;;;;;;;10.13;5.95;;;;;;;12.03;70.42;102043.91;5056145;28;20055;-59
2022/10/04 06:35:30;;;;;;;12.63;5.82;;;;;;;12.07;70.29;102044.31;5071338;28;20036;-60
2022/10/04 06:38:07;;;;;;;10.13;5.60;;;;;;;12.03;70.30;102043.91;5057067;28;20037;-60
2022/10/04 06:41:02;;;;;;;9.65;5.70;;;;;;;12.06;70.21;102034.22;5061578;28;20498;-59
2022/10/04 06:43:53;;;;;;;11.32;5.57;;;;;;;12.10;69.87;102035.47;5043413;28;20555;-59
2022/10/04 06:46:30;;;;;;;8.52;5.55;;;;;;;12.08;70.18;102036.78;5058832;28;20032;-59
2022/10/04 06:49:20;;;;;;;14.38;6.25;;;;;;;12.08;70.05;102037.66;5088790;28;20089;-60
2022/10/04 06:52:21;;;;;;;13.35;6.03;;;;;;;12.11;69.91;102030.78;5088657;28;22430;-60
2022/10/04 06:55:06;;;;;;;12.32;5.82;;;;;;;12.03;69.88;102041.13;5085984;28;20181;-60
2022/10/04 06:57:58;;;;;;;11.98;5.65;;;;;;;12.03;70.17;102043.91;5049794;28;20400;-60
2022/10/04 07:00:25;;;;;;;9.85;6.13;;;;;;;11.98;69.59;102038.19;5055064;28;20093;-59
2022/10/04 07:03:14;;;;;;;8.32;5.63;;;;;;;12.07;69.83;102038.72;5071003;28;20024;-59
2022/10/04 07:05:54;;;;;;;13.57;6.00;;;;;;;12.09;69.43;102038.50;5071287;28;20032;-59
2022/10/04 07:08:38;;;;;;;10.93;5.65;;;;;;;12.03;70.09;102030.00;5086082;28;20028;-59
2022/10/04 07:11:12;;;;;;;13.73;5.85;;;;;;;12.03;69.73;102029.16;5091377;28;20101;-59
2022/10/04 07:13:56;;;;;;;10.18;5.35;;;;;;;12.07;70.02;102030.38;5090416;28;20039;-59
2022/10/04 07:16:40;;;;;;;11.50;5.88;;;;;;;12.07;69.45;102023.97;5091372;28;20039;-59
2022/10/04 07:19:25;;;;;;;11.00;6.13;;;;;;;12.07;69.71;102016.47;5058186;28;20107;-59
2022/10/04 07:22:05;;;;;;;14.07;5.85;;;;;;;12.16;69.84;102017.00;5063756;28;20024;-60
2022/10/04 07:24:36;;;;;;;12.55;6.07;;;;;;;12.16;69.82;102014.19;5089527;28;20032;-60
2022/10/04 07:27:07;;;;;;;9.15;5.57;;;;;;;12.20;69.44;102012.66;5064488;28;20035;-59
2022/10/04 07:29:37;;;;;;;9.80;6.00;;;;;;;12.30;69.93;102012.94;5050676;28;20029;-59
2022/10/04 07:32:05;;;;;;;9.50;5.95;;;;;;;12.32;69.89;102024.66;5050894;28;20103;-59
2022/10/04 07:34:39;;;;;;;11.27;5.97;;;;;;;12.39;69.58;102025.44;5050426;28;20048;-60
2022/10/04 07:37:11;;;;;;;9.90;6.07;;;;;;;12.44;69.46;102024.72;5061036;28;20028;-59
2022/10/04 07:39:45;;;;;;;;;;;;;;;12.60;69.10;102023.19;5091711;28;20032;-59
2022/10/04 07:42:32;;;;;;;10.35;6.15;;;;;;;12.63;69.27;102033.84;5090071;28;20013;-59
2022/10/04 07:45:20;;;;;;;13.70;6.30;;;;;;;12.79;69.20;102027.59;5079565;28;20027;-59
2022/10/04 07:47:46;;;;;;;12.43;6.63;;;;;;;12.85;68.50;102032.22;5080172;28;20024;-59
2022/10/04 07:50:38;;;;;;;10.73;6.25;;;;;;;13.04;68.62;102038.53;5096055;28;20036;-58
2022/10/04 07:53:11;;;;;;;9.40;5.75;;;;;;;13.16;68.08;102039.38;5094564;28;20417;-59
2022/10/04 07:55:43;;;;;;;9.18;5.30;;;;;;;13.30;68.60;102031.66;5094463;28;20464;-58
2022/10/04 07:58:44;;;;;;;7.32;5.70;;;;;;;13.45;67.74;102022.81;5076103;28;20039;-60
2022/10/04 08:01:28;;;;;;;11.30;6.00;;;;;;;13.59;67.77;102015.03;5069597;28;20044;-58
2022/10/04 08:04:08;;;;;;;9.00;5.45;;;;;;;13.65;67.14;102017.69;5072634;28;20472;-58
2022/10/04 08:07:04;;;;;;;11.93;6.13;;;;;;;13.86;67.21;102020.91;5074725;28;20029;-58
2022/10/04 08:09:55;;;;;;;12.35;5.60;;;;;;;13.95;66.10;102025.88;5073792;28;20016;-58
2022/10/04 08:12:33;;;;;;;9.03;4.90;;;;;;;14.10;66.01;102013.31;5076714;28;20403;-58
2022/10/04 08:15:29;;;;;;;10.32;5.65;;;;;;;14.20;66.21;102017.16;5074826;28;20029;-58
2022/10/04 08:18:26;;;;;;;11.07;5.40;;;;;;;14.30;65.93;102008.13;5074962;28;20016;-58
2022/10/04 08:20:56;;;;;;;9.00;5.40;;;;;;;14.45;65.42;102005.63;5079066;28;20492;-58
2022/10/04 08:24:06;;;;;;;9.60;5.00;;;;;;;14.60;65.61;102018.22;5064767;28;20036;-58
2022/10/04 08:26:56;;;;;;;10.98;5.68;;;;;;;14.65;65.37;102019.16;5059120;28;20043;-58
2022/10/04 08:29:49;;;;;;;7.75;5.20;;;;;;;14.74;63.72;102014.03;5054008;28;20025;-58
2022/10/04 08:32:43;;;;;;;9.00;5.53;;;;;;;14.84;64.18;102016.13;5052842;28;20086;-58
2022/10/04 08:35:21;;;;;;;8.88;5.88;;;;;;;14.80;64.07;102012.97;5057529;28;20028;-59
2022/10/04 08:37:52;;;;;;;13.18;6.20;;;;;;;14.68;63.23;102023.41;5054683;28;20412;-58
2022/10/04 08:40:55;;;;;;;12.68;5.63;;;;;;;14.66;63.98;102026.47;5062295;28;20404;-59
2022/10/04 08:43:55;;;;;;;11.38;6.03;;;;;;;14.66;64.36;102026.47;5056122;28;20028;-58
2022/10/04 08:46:45;;;;;;;11.15;6.68;;;;;;;14.92;64.10;102024.09;5061019;28;20738;-59
2022/10/04 08:50:04;;;;;;;10.93;4.90;;;;;;;15.32;66.06;102014.66;5068730;28;20094;-57
2022/10/04 08:52:51;;;;;;;9.07;5.38;;;;;;;15.64;64.24;102017.63;5038367;28;20025;-59
2022/10/04 08:55:41;;;;;;;10.52;5.40;;;;;;;15.90;63.83;102016.06;5047781;28;20049;-58
2022/10/04 08:58:09;;;;;;;12.93;5.88;;;;;;;16.12;62.70;102016.06;5051633;28;20045;-59
2022/10/04 09:00:52;;;;;;;10.35;4.93;;;;;;;16.28;61.85;102011.47;5052676;28;20048;-58
2022/10/04 09:03:45;;;;;;;7.38;5.25;;;;;;;16.42;62.49;102019.19;5062352;28;20039;-59
2022/10/04 09:06:35;;;;;;;11.75;6.15;;;;;;;16.57;61.42;102009.25;5052560;28;20106;-58
2022/10/04 09:09:19;;;;;;;11.98;5.80;;;;;;;16.68;61.23;102011.88;5079496;28;20476;-59
2022/10/04 09:12:19;;;;;;;12.70;6.70;;;;;;;16.79;60.69;102021.28;5083562;28;20040;-59
2022/10/04 09:14:55;;;;;;;10.88;5.72;;;;;;;16.93;59.71;102021.66;5059927;28;20043;-58
2022/10/04 09:17:26;;;;;;;12.25;6.03;;;;;;;16.97;58.70;102027.59;5057005;28;20031;-58
2022/10/04 09:20:08;;;;;;;11.20;6.60;;;;;;;17.07;59.64;102020.09;5068731;28;20028;-57
2022/10/04 09:22:50;;;;;;;7.32;5.20;;;;;;;17.20;59.53;102026.38;5067813;28;20024;-57
2022/10/04 09:25:22;;;;;;;12.57;5.73;;;;;;;17.14;58.36;102015.13;5071337;28;20552;-58
2022/10/04 09:27:56;;;;;;;12.02;6.60;;;;;;;17.19;58.19;102014.31;5057066;28;20817;-58
2022/10/04 09:30:32;;;;;;;10.80;7.10;;;;;;;17.22;57.56;102010.13;5057087;28;20076;-58
2022/10/04 09:33:24;;;;;;;9.73;5.45;;;;;;;17.42;58.63;102008.28;5066166;28;20387;-58
2022/10/04 09:36:02;;;;;;;13.43;6.45;;;;;;;17.46;58.03;101996.53;5059580;28;20037;-57
2022/10/04 09:38:57;;;;;;;12.88;6.18;;;;;;;17.49;58.35;101991.22;5061539;28;20395;-59
2022/10/04 09:41:36;;;;;;;11.93;6.13;;;;;;;17.54;57.11;101993.19;5061172;28;20044;-59
2022/10/04 09:44:27;;;;;;;11.07;5.45;;;;;;;17.55;57.73;101994.88;5061193;28;20039;-59
2022/10/04 09:47:30;;;;;;;12.23;5.97;;;;;;;17.56;57.48;101988.16;5072508;28;20032;-58
2022/10/04 09:50:13;;;;;;;13.80;5.43;;;;;;;17.52;56.33;101987.84;5056462;28;20043;-58
2022/10/04 09:53:16;;;;;;;10.15;5.00;;;;;;;17.63;57.62;101991.56;5090910;28;20043;-59
2022/10/04 09:55:44;;;;;;;13.13;5.47;;;;;;;17.75;56.78;101996.97;5067527;28;20033;-59
2022/10/04 09:58:21;;;;;;;12.27;5.40;;;;;;;17.80;56.74;101991.38;5079321;28;20031;-58
2022/10/04 10:01:01;;;;;;;9.45;5.18;;;;;;;17.91;56.20;101998.72;5063866;28;20021;-59
2022/10/04 10:03:49;;;;;;;11.32;5.13;;;;;;;17.98;56.74;101996.53;5050732;28;20032;-58
2022/10/04 10:06:29;;;;;;;10.15;4.50;;;;;;;18.05;57.06;101999.09;5051604;28;20045;-58
2022/10/04 10:13:38;;;;;;;8.38;4.85;;;;;;;18.13;56.78;101990.13;5067417;28;20039;-60
2022/10/04 10:15:26;;;;;;;9.32;5.00;;;;;;;18.19;56.00;101986.19;5051363;28;20558;-58
2022/10/04 10:18:13;;;;;;;12.00;4.03;;;;;;;18.32;56.22;101987.66;5055100;28;20032;-58
2022/10/04 10:21:01;;;;;;;8.82;4.20;;;;;;;18.30;56.66;101981.44;5063651;28;20033;-58
2022/10/04 10:23:47;;;;;;;9.50;5.35;;;;;;;18.35;54.89;101975.81;5064762;28;20135;-58
2022/10/04 10:26:43;;;;;;;7.40;4.35;;;;;;;18.42;56.00;101967.13;5060775;28;20044;-58
2022/10/04 10:29:14;;;;;;;9.70;5.10;;;;;;;18.44;55.43;101962.09;5052727;28;20033;-57
2022/10/04 10:32:17;;;;;;;9.65;5.55;;;;;;;18.44;56.08;101964.91;5055863;28;20025;-58
2022/10/04 10:34:59;;;;;;;8.50;5.35;;;;;;;18.42;54.66;101962.34;5060481;28;20021;-58
2022/10/04 10:37:42;;;;;;;7.93;4.80;;;;;;;18.49;54.89;101970.50;5052254;28;20476;-57
2022/10/04 10:40:29;;;;;;;12.48;5.88;;;;;;;18.44;55.34;101973.31;5055913;28;20421;-58
2022/10/04 10:43:22;;;;;;;7.70;5.00;;;;;;;18.45;54.84;101977.81;5064287;28;20532;-59
2022/10/04 10:46:25;;;;;;;9.60;5.32;;;;;;;18.58;55.58;101975.28;5059852;28;20040;-58
2022/10/04 10:49:09;;;;;;;10.88;5.40;;;;;;;18.69;55.46;101976.16;5052652;28;20044;-58
2022/10/04 10:52:05;;;;;;;7.05;4.88;;;;;;;18.71;55.45;101982.38;5053622;28;20039;-58
2022/10/04 10:54:44;;;;;;;10.57;5.05;;;;;;;18.79;55.17;101987.44;5062590;28;20033;-58
2022/10/04 10:57:21;;;;;;;7.97;4.47;;;;;;;18.75;53.64;101983.50;5063758;28;20099;-59
2022/10/04 11:00:22;;;;;;;10.98;4.78;;;;;;;18.67;55.28;101985.97;5055746;28;20045;-58
2022/10/04 11:02:53;;;;;;;7.25;4.20;;;;;;;18.60;53.98;101977.84;5028633;28;20613;-58
2022/10/04 11:05:52;;;;;;;8.38;4.70;;;;;;;18.52;54.59;101967.16;5058637;28;20062;-58
2022/10/04 11:08:51;;;;;;;17.70;8.10;;;;;;;18.65;55.65;101972.22;5059815;28;20178;-58
2022/10/04 11:11:42;;;;;;;9.85;5.05;;;;;;;18.62;54.29;101967.97;5066938;28;20033;-58
2022/10/04 11:14:34;;;;;;;9.68;5.10;;;;;;;18.62;54.66;101958.72;5053131;28;20062;-58
2022/10/04 11:17:30;;;;;;;9.75;4.82;;;;;;;18.67;54.24;101953.09;5061190;28;20021;-58
2022/10/04 11:20:34;;;;;;;8.00;4.40;;;;;;;18.72;54.22;101947.50;5066981;28;20048;-57
2022/10/04 11:23:16;;;;;;;8.82;4.28;;;;;;;18.77;52.69;101950.31;5061199;28;20043;-58
2022/10/04 11:25:57;;;;;;;6.57;4.18;;;;;;;18.78;53.82;101943.53;5063639;28;20036;-58
2022/10/04 11:28:45;;;;;;;9.63;4.45;;;;;;;18.86;53.54;101937.38;5054577;28;20041;-58
2022/10/04 11:31:35;;;;;;;7.55;4.05;;;;;;;18.88;52.20;101937.94;5059320;28;20644;-58
2022/10/04 11:34:17;;;;;;;9.63;4.18;;;;;;;18.87;51.53;101932.59;5055064;28;20045;-58
2022/10/04 11:37:42;;;;;;;7.32;4.20;;;;;;;18.87;53.32;101939.06;5062276;28;20061;-58
2022/10/04 11:40:56;;;;;;;8.43;4.53;;;;;;;18.81;52.83;101940.19;5054737;28;20047;-58
2022/10/04 11:43:51;;;;;;;9.35;3.92;;;;;;;18.74;51.29;101927.53;5068275;28;20047;-59
2022/10/04 11:46:22;;;;;;;8.63;4.00;;;;;;;18.72;52.39;101925.00;5067635;28;20024;-58
2022/10/04 11:49:12;;;;;;;6.43;3.30;;;;;;;18.74;52.97;101925.53;5068256;28;20801;-58
2022/10/04 11:51:57;;;;;;;8.38;3.33;;;;;;;18.81;52.93;101917.66;5080736;28;20028;-58
2022/10/04 11:54:57;;;;;;;8.52;3.70;;;;;;;18.81;53.50;101906.41;5065899;28;20029;-58
2022/10/04 11:57:48;;;;;;;8.13;4.13;;;;;;;18.77;52.77;101908.13;5094250;28;20066;-58
2022/10/04 12:00:22;;;;;;;7.80;3.60;;;;;;;18.71;51.38;101908.44;5074691;28;20039;-57
2022/10/04 12:03:13;;;;;;;9.45;3.40;;;;;;;18.65;52.03;101914.00;5073701;28;20029;-57
2022/10/04 12:06:02;;;;;;;8.90;3.92;;;;;;;18.56;52.28;101912.03;5073466;28;20044;-58
2022/10/04 12:08:50;;;;;;;10.15;3.13;;;;;;;18.47;52.24;101910.91;5071512;28;20032;-58
2022/10/04 12:14:39;;;;;;;7.03;3.00;;;;;;;18.39;51.73;101912.28;5092573;28;20043;-58
2022/10/04 12:17:07;;;;;;;7.97;3.55;;;;;;;18.45;53.54;101908.38;5091875;28;20089;-58
2022/10/04 12:20:01;;;;;;;7.13;3.45;;;;;;;18.46;53.24;101904.44;5093500;28;20032;-58
2022/10/04 12:22:59;;;;;;;6.72;3.47;;;;;;;18.41;52.66;101898.81;5087761;28;20027;-59
2022/10/04 12:25:58;;;;;;;7.53;3.63;;;;;;;18.34;53.07;101899.09;5094198;28;20038;-57
2022/10/04 12:28:29;;;;;;;9.30;3.70;;;;;;;18.34;53.01;101895.44;5080159;28;20036;-58
2022/10/04 12:31:12;;;;;;;5.82;3.50;;;;;;;18.39;52.82;101890.69;5070621;28;20046;-58